Latest Weather Observations for Maryborough

IDQ60801

Issued at 12:35 pm EST Wednesday 22 October 2014 (issued every 30 minutes, with the page automatically refreshed every 10 minutes)

About weather observations | Map of weather stations | Latest weather observations for QLD | Other Formats
Station Details ID: 040126 Name: MARYBOROUGH Lat: -25.52 Lon: 152.72 Height: 10.28 m
Data from the previous 72 hours. | See also: Recent months at Maryborough
Date/Time
EST
Temp
°C
App
Temp
°C
Dew
Point
Rel
Hum
%
Delta-T
°C
Wind Press
QNH
hPa
Press
MSL
hPa
Rain
since 9 am
mm
Dir
 
Spd
km/h
Gust
km/h
Spd
kts
Gust
kts
22/12:30pm 24.8 19.5 11.4 43 7.5 ESE 30 41 16 22 1022.4 - 0.0
22/12:00pm 24.6 20.0 9.7 39 8.1 SSE 24 35 13 19 1022.6 1022.5 0.0
22/11:30am 25.1 20.5 10.9 41 8.0 SSE 26 35 14 19 1023.2 - 0.0
22/11:00am 24.9 19.8 10.7 40 7.9 ESE 28 41 15 22 1023.6 - 0.0
22/10:30am 23.7 18.0 8.5 38 8.1 SE 28 41 15 22 1023.9 - 0.0
22/10:00am 23.8 19.1 10.5 43 7.4 SE 26 37 14 20 1024.3 - 0.0
22/09:30am 21.9 16.7 10.4 48 6.3 SE 28 41 15 22 1024.4 - 0.0
22/09:00am 21.7 18.1 12.0 54 5.4 SE 22 32 12 17 1024.4 1024.3 1.2
22/08:30am 22.0 19.6 12.8 56 5.2 SSE 17 26 9 14 1024.4 - 1.2
22/08:00am 20.2 17.8 13.9 67 3.6 SSE 19 28 10 15 1024.3 - 1.2
22/07:30am 19.0 16.9 15.3 79 2.2 S 20 26 11 14 1024.2 - 1.2
22/07:00am 18.2 16.6 14.9 81 1.9 S 17 22 9 12 1023.8 - 1.2
22/06:30am 17.4 15.8 14.9 85 1.4 S 17 20 9 11 1023.8 - 1.2
22/06:00am 16.9 15.8 15.2 90 1.0 S 15 20 8 11 1023.6 1023.5 1.2
22/05:30am 16.6 14.7 15.1 91 0.9 S 19 28 10 15 1023.4 - 1.2
22/05:00am 16.5 15.2 14.9 90 0.9 S 15 19 8 10 1023.0 - 1.2
22/04:30am 16.4 14.8 14.9 91 0.9 S 17 22 9 12 1022.8 - 1.2
22/04:00am 16.5 15.2 14.9 90 0.9 S 15 20 8 11 1022.8 - 1.2
22/03:30am 17.2 16.1 15.4 89 1.1 S 15 20 8 11 1022.9 - 1.2
22/03:00am 17.3 16.4 15.8 91 0.9 S 15 20 8 11 1022.9 1022.8 1.2
22/02:30am 17.2 16.2 15.5 90 1.0 S 15 17 8 9 1023.2 - 1.2
22/02:00am 17.5 16.3 16.0 91 0.9 S 17 26 9 14 1023.5 - 1.2
22/01:30am 17.6 17.1 15.9 90 1.0 S 13 20 7 11 1023.9 - 1.2
22/01:00am 17.4 16.6 16.1 92 0.8 SSW 15 19 8 10 1024.2 - 1.2
22/12:30am 17.5 16.7 16.2 92 0.8 SSW 15 20 8 11 1024.6 - 1.2
22/12:00am 17.3 16.7 15.6 90 1.0 S 13 17 7 9 1024.9 1024.8 1.2
 
Date/Time
EST
Temp
°C
App
Temp
°C
Dew
Point
Rel
Hum
%
Delta-T
°C
Wind Press
QNH
hPa
Press
MSL
hPa
Rain
since 9 am
mm
Dir
 
Spd
km/h
Gust
km/h
Spd
kts
Gust
kts
21/11:30pm 17.5 17.5 16.2 92 0.8 S 11 13 6 7 1025.3 - 1.2
21/11:00pm 17.5 17.1 16.2 92 0.8 S 13 15 7 8 1025.6 - 1.2
21/10:30pm 17.8 17.7 16.1 90 1.0 S 11 13 6 7 1025.7 - 1.2
21/10:00pm 17.8 18.1 16.1 90 1.0 S 9 11 5 6 1025.8 - 1.0
21/09:30pm 18.1 18.5 16.3 89 1.1 SSE 9 13 5 7 1025.9 - 1.0
21/09:00pm 18.6 18.1 16.9 90 1.0 SSE 15 19 8 10 1025.8 1025.7 1.0
21/08:30pm 18.8 18.6 17.5 92 0.8 S 15 20 8 11 1025.8 - 0.6
21/08:00pm 18.6 18.9 17.1 91 0.9 SSE 11 13 6 7 1025.3 - 0.4
21/07:30pm 18.8 18.1 17.3 91 0.9 SSE 17 24 9 13 1025.2 - 0.4
21/07:00pm 19.3 17.9 16.5 84 1.7 S 19 26 10 14 1025.0 - 0.0
21/06:30pm 20.0 19.8 16.8 82 1.9 S 13 15 7 8 1024.6 - 0.0
21/06:00pm 19.9 19.8 16.9 83 1.8 SSE 13 17 7 9 1024.4 1024.3 0.0
21/05:30pm 20.0 19.0 16.6 81 2.1 SSE 17 22 9 12 1024.4 - 0.0
21/05:00pm 19.9 19.1 17.1 84 1.7 SE 17 22 9 12 1024.0 - 0.0
21/04:30pm 19.8 16.5 16.1 79 2.2 SE 28 43 15 23 1023.8 - 0.0
21/04:00pm 22.4 20.5 15.7 66 4.0 SE 20 28 11 15 1023.5 - 0.0
21/03:30pm 22.8 20.8 15.6 64 4.3 SE 20 32 11 17 1023.3 - 0.0
21/03:00pm 22.2 21.3 16.9 72 3.2 SSE 17 22 9 12 1023.4 1023.3 0.0
21/02:30pm 23.3 21.1 14.8 59 5.0 SE 20 32 11 17 1023.3 - 0.0
21/02:00pm 24.0 20.4 14.1 54 5.8 SE 26 35 14 19 1023.3 - 0.0
21/01:30pm 23.8 19.3 13.9 54 5.8 SE 30 43 16 23 1023.8 - 0.0
21/01:00pm 24.6 21.2 13.8 51 6.3 ESE 24 33 13 18 1024.0 - 0.0
21/12:30pm 25.7 23.1 14.8 51 6.5 ESE 22 39 12 21 1024.3 - 0.0
21/12:00pm 25.3 21.5 13.5 48 6.9 SSE 26 37 14 20 1024.6 1024.5 0.0
21/11:30am 25.0 20.7 13.2 48 6.9 ESE 28 35 15 19 1025.0 - 0.0
21/11:00am 25.5 22.3 14.3 50 6.7 SE 24 35 13 19 1025.2 - 0.0
21/10:30am 24.1 21.4 13.6 52 6.1 SE 20 33 11 18 1025.6 - 0.0
21/10:00am 23.7 21.0 13.0 51 6.2 SE 19 28 10 15 1025.8 - 0.0
21/09:30am 23.6 20.1 12.3 49 6.4 SE 22 33 12 18 1026.0 - 0.0
21/09:00am 23.4 19.5 12.1 49 6.4 SE 24 35 13 19 1026.1 1026.0 0.0
21/08:30am 23.5 19.7 12.5 50 6.3 SE 24 35 13 19 1026.0 - 0.0
21/08:00am 23.0 19.4 12.9 53 5.8 ESE 24 35 13 19 1025.8 - 0.0
21/07:30am 20.7 19.4 13.6 64 4.1 S 13 17 7 9 1025.5 - 0.0
21/07:00am 18.6 17.8 13.9 74 2.7 S 11 13 6 7 1025.5 - 0.0
21/06:30am 16.9 15.5 13.4 80 2.0 S 13 17 7 9 1025.2 - 0.0
21/06:00am 15.5 14.8 13.2 86 1.3 S 9 13 5 7 1024.8 1024.7 0.0
21/05:30am 13.8 12.3 11.8 88 1.1 SSW 11 13 6 7 1024.5 - 0.0
21/05:00am 13.9 12.4 11.9 88 1.1 S 11 13 6 7 1024.3 - 0.0
21/04:30am 14.7 13.5 12.7 88 1.1 SSW 11 15 6 8 1024.1 - 0.0
21/04:00am 13.8 12.2 11.7 87 1.1 S 11 15 6 8 1023.9 - 0.0
21/03:30am 14.4 13.3 12.1 86 1.2 SSW 9 11 5 6 1023.9 - 0.0
21/03:00am 14.8 13.7 12.1 84 1.5 S 9 11 5 6 1023.9 1023.8 0.0
21/02:30am 15.4 14.9 12.7 84 1.5 S 7 11 4 6 1024.0 - 0.0
21/02:00am 15.1 14.3 12.8 86 1.3 S 9 11 5 6 1024.3 - 0.0
21/01:30am 15.3 14.2 13.1 87 1.2 S 11 13 6 7 1024.5 - 0.0
21/01:00am 15.4 14.2 12.7 84 1.5 SSW 11 13 6 7 1024.8 - 0.0
21/12:30am 15.6 14.9 13.1 85 1.4 S 9 11 5 6 1025.1 - 0.0
21/12:00am 15.5 14.3 12.8 84 1.5 S 11 13 6 7 1025.3 1025.2 0.0
 
Date/Time
EST
Temp
°C
App
Temp
°C
Dew
Point
Rel
Hum
%
Delta-T
°C
Wind Press
QNH
hPa
Press
MSL
hPa
Rain
since 9 am
mm
Dir
 
Spd
km/h
Gust
km/h
Spd
kts
Gust
kts
20/11:30pm 15.7 14.9 13.0 84 1.5 S 9 13 5 7 1025.5 - 0.0
20/11:00pm 15.3 14.0 12.4 83 1.6 S 11 15 6 8 1025.6 - 0.0
20/10:30pm 15.5 14.6 12.6 83 1.6 S 9 11 5 6 1025.6 - 0.0
20/10:00pm 15.9 14.6 12.6 81 1.8 SSW 11 13 6 7 1025.7 - 0.0
20/09:30pm 16.6 16.3 13.3 81 1.8 S 7 11 4 6 1025.4 - 0.0
20/09:00pm 16.9 16.2 13.2 79 2.1 S 9 11 5 6 1025.1 1025.0 0.0
20/08:30pm 16.8 16.8 13.5 81 1.9 SE 6 7 3 4 1024.6 - 0.0
20/08:00pm 17.1 16.9 13.0 77 2.3 SE 6 6 3 3 1024.2 - 0.0
20/07:30pm 17.5 17.0 12.8 74 2.6 E 7 9 4 5 1023.7 - 0.0
20/07:00pm 17.6 16.3 12.5 72 2.8 E 11 13 6 7 1023.5 - 0.0
20/06:30pm 18.2 16.7 12.0 67 3.4 E 11 13 6 7 1023.1 - 0.0
20/06:00pm 19.5 17.1 11.5 60 4.4 ESE 15 19 8 10 1022.6 1022.5 0.0
20/05:30pm 21.5 18.2 11.5 53 5.6 E 20 28 11 15 1022.1 - 0.0
20/05:00pm 22.9 19.8 11.6 49 6.3 E 19 28 10 15 1021.6 - 0.0
20/04:30pm 23.9 20.3 10.6 43 7.4 ESE 20 28 11 15 1021.3 - 0.0
20/04:00pm 24.5 20.9 10.4 41 7.8 E 20 30 11 16 1021.2 - 0.0
20/03:30pm 25.5 21.4 10.1 38 8.5 ESE 22 30 12 16 1021.0 - 0.0
20/03:00pm 26.0 22.7 11.7 41 8.1 SE 20 28 11 15 1021.1 1021.0 0.0
20/02:30pm 26.0 22.4 10.6 38 8.6 SE 20 30 11 16 1021.1 - 0.0
20/02:00pm 25.8 23.0 11.2 40 8.3 E 17 26 9 14 1021.5 - 0.0
20/01:30pm 26.2 23.7 12.3 42 8.0 ESE 17 24 9 13 1021.8 - 0.0
20/01:00pm 25.6 23.2 12.8 45 7.4 E 17 28 9 15 1022.3 - 0.0
20/12:30pm 26.0 22.9 12.1 42 8.0 SE 20 30 11 16 1022.6 - 0.0
20/12:00pm 25.8 23.2 11.9 42 7.9 SE 17 28 9 15 1023.0 1022.9 0.0
20/11:30am 25.1 22.0 12.3 45 7.3 E 20 28 11 15 1023.3 - 0.0
20/11:00am 25.6 23.6 12.8 45 7.4 SE 15 28 8 15 1023.7 - 0.0
20/10:30am 24.7 21.3 10.6 41 7.8 SE 19 26 10 14 1024.2 - 0.0
20/10:00am 25.3 23.7 13.8 49 6.8 E 15 24 8 13 1024.6 - 0.0
20/09:30am 24.7 22.4 13.0 48 6.8 E 17 22 9 12 1025.1 - 0.0
20/09:00am 24.2 22.2 12.8 49 6.5 SE 15 33 8 18 1025.3 1025.2 0.0
20/08:30am 22.2 20.6 12.7 55 5.4 SE 13 22 7 12 1025.3 - 0.0
20/08:00am 21.1 20.8 13.3 61 4.5 S 7 13 4 7 1025.4 - 0.0
20/07:30am 19.4 18.7 13.1 67 3.6 S 9 13 5 7 1025.3 - 0.0
20/07:00am 17.7 16.5 12.8 73 2.7 SSW 11 15 6 8 1025.2 - 0.0
20/06:30am 16.0 14.3 12.6 80 1.9 SSW 13 15 7 8 1025.0 - 0.0
20/06:00am 14.5 13.5 12.2 86 1.2 S 9 13 5 7 1024.7 1024.6 0.0
20/05:30am 12.9 11.7 11.5 91 0.7 S 9 11 5 6 1024.2 - 0.0
20/05:12am 12.3 10.8 10.7 90 0.8 SSW 9 9 5 5 1024.1 - 0.0
20/05:00am 12.1 10.9 10.2 88 1.0 SSW 7 9 4 5 1023.9 - 0.0
20/04:54am 12.5 11.1 10.9 90 0.8 SSW 9 11 5 6 1023.9 - 0.0
20/04:30am 12.6 11.8 11.2 91 0.7 SSW 6 9 3 5 1023.8 - 0.0
20/04:00am 12.1 10.8 10.0 87 1.1 SSW 7 9 4 5 1023.7 - 0.0
20/03:30am 13.2 11.9 11.4 89 1.0 SSW 9 11 5 6 1023.7 - 0.0
20/03:00am 13.3 12.0 11.2 87 1.1 SSW 9 11 5 6 1023.6 1023.5 0.0
20/02:30am 13.5 12.2 11.4 87 1.1 S 9 9 5 5 1023.8 - 0.0
20/02:00am 14.0 12.9 11.9 87 1.1 SSW 9 11 5 6 1024.0 - 0.0
20/01:30am 14.2 13.5 12.1 87 1.1 SSW 7 9 4 5 1024.0 - 0.0
20/01:00am 14.0 12.9 11.9 87 1.1 S 9 11 5 6 1024.3 - 0.0
20/12:30am 14.2 13.1 11.9 86 1.2 SSW 9 11 5 6 1024.7 - 0.0
20/12:00am 14.1 13.2 12.5 90 0.9 SSW 9 9 5 5 1025.0 1024.9 0.0
 
Date/Time
EST
Temp
°C
App
Temp
°C
Dew
Point
Rel
Hum
%
Delta-T
°C
Wind Press
QNH
hPa
Press
MSL
hPa
Rain
since 9 am
mm
Dir
 
Spd
km/h
Gust
km/h
Spd
kts
Gust
kts
19/11:30pm 14.1 13.2 12.5 90 0.9 SSW 9 11 5 6 1025.3 - 0.0
19/11:00pm 14.3 13.9 12.9 91 0.8 SSE 7 9 4 5 1025.5 - 0.0
19/10:00pm 15.7 15.1 12.3 80 1.9 SSE 7 7 4 4 1025.8 - 0.0
19/09:30pm 16.2 15.8 12.9 81 1.8 SE 7 9 4 5 1025.8 - 0.0
19/09:00pm 16.3 15.8 12.8 80 1.9 ESE 7 9 4 5 1025.6 1025.5 0.0
19/08:30pm 15.9 15.2 11.3 74 2.5 SE 6 7 3 4 1025.5 - 0.0
19/08:00pm 17.4 16.9 12.5 73 2.7 SE 7 9 4 5 1025.4 - 0.0
19/07:30pm 17.4 16.4 12.3 72 2.8 ESE 9 15 5 8 1025.1 - 0.0
19/07:00pm 18.1 16.3 12.1 68 3.3 ESE 13 20 7 11 1024.7 - 0.0
19/06:30pm 19.1 16.0 12.1 64 3.9 ESE 20 26 11 14 1024.3 - 0.0
19/06:00pm 20.1 16.6 12.1 60 4.4 ESE 22 30 12 16 1023.8 1023.7 0.0
19/05:30pm 21.2 16.9 12.1 56 5.1 ESE 26 33 14 18 1023.5 - 0.0
19/05:00pm 22.1 17.6 11.5 51 5.9 ESE 26 37 14 20 1023.3 - 0.0
19/04:30pm 22.7 17.5 11.7 49 6.2 ESE 30 41 16 22 1022.9 - 0.0
19/04:00pm 23.1 18.3 11.5 48 6.5 ESE 28 39 15 21 1022.8 - 0.0
19/03:51pm 23.9 19.3 12.2 48 6.7 ESE 28 46 15 25 1022.8 - 0.0
19/03:30pm 24.0 19.3 12.0 47 6.8 ESE 28 37 15 20 1022.7 - 0.0
19/03:00pm 24.5 19.5 12.1 46 7.0 ESE 30 43 16 23 1022.7 1022.6 0.0
19/02:30pm 24.1 18.3 11.4 45 7.1 ESE 33 43 18 23 1022.9 - 0.0
19/02:00pm 23.9 19.2 11.9 47 6.8 ESE 28 37 15 20 1023.1 - 0.0
19/01:30pm 25.4 21.6 12.3 44 7.5 SE 24 39 13 21 1023.5 - 0.0
19/01:00pm 25.4 21.3 12.6 45 7.4 SE 26 39 14 21 1023.9 - 0.0

Other Formats:

Comma delimited format used in spreadsheet applications
http://www.bom.gov.au/fwo/IDQ60801/IDQ60801.94567.axf

JavaScript Object Notation format (JSON) in row-major order
http://www.bom.gov.au/fwo/IDQ60801/IDQ60801.94567.json